Time;durP1;ratioP1;P1;durP2;ratioP2;P2;SDS_P1;SDS_P2;PMS_P1;PMS_P2;Temp;Humidity;BMP_temperature;BMP_pressure;BME280_temperature;BME280_humidity;BME280_pressure;Samples;Min_cycle;Max_cycle;Signal;HPM_P1;HPM_P2
2022/07/07 00:02:25;;;;;;;4.2;3.8;;;;;;;16.48;81.18457;943.3947;;;;
2022/07/07 00:05:01;;;;;;;5;4.1;;;;;;;16.58;80.81934;943.3853;;;;
2022/07/07 00:07:43;;;;;;;5.3;4.1;;;;;;;16.64;81.01758;943.2791;;;;
2022/07/07 00:10:31;;;;;;;3.9;3.5;;;;;;;16.66;81.06641;943.3667;;;;
2022/07/07 00:13:13;;;;;;;8.2;4.2;;;;;;;16.64;81.13379;943.3242;;;;
2022/07/07 00:15:57;;;;;;;3.9;3.6;;;;;;;16.72;80.52148;943.2556;;;;
2022/07/07 00:18:35;;;;;;;4.9;4.1;;;;;;;16.7;80.63477;943.1914;;;;
2022/07/07 00:21:13;;;;;;;4.6;3.7;;;;;;;16.71;81.19141;943.1632;;;;
2022/07/07 00:23:51;;;;;;;6;3.9;;;;;;;16.65;80.54297;943.1922;;;;
2022/07/07 00:26:30;;;;;;;4.3;3.8;;;;;;;16.71;80.33496;943.2283;;;;
2022/07/07 00:29:07;;;;;;;5.9;3.8;;;;;;;16.71;80.94824;943.2405;;;;
2022/07/07 00:31:39;;;;;;;4.9;3.9;;;;;;;16.71;81.48145;943.2645;;;;
2022/07/07 00:34:16;;;;;;;4.7;4.1;;;;;;;16.79;80.66406;943.2527;;;;
2022/07/07 00:36:43;;;;;;;4.5;3.5;;;;;;;16.73;80.92871;943.2997;;;;
2022/07/07 00:39:12;;;;;;;6;4.2;;;;;;;16.72;81.33203;943.3022;;;;
2022/07/07 00:41:49;;;;;;;4.4;3.6;;;;;;;16.79;80.73047;943.2745;;;;
2022/07/07 00:44:22;;;;;;;5.6;3.9;;;;;;;16.73;81.54395;943.3167;;;;
2022/07/07 00:46:53;;;;;;;5.4;3.7;;;;;;;16.75;81.8584;943.3069;;;;
2022/07/07 00:49:20;;;;;;;5.9;3.9;;;;;;;16.85;81.56641;943.2679;;;;
2022/07/07 00:51:45;;;;;;;4.4;4;;;;;;;16.9;81.30762;943.3231;;;;
2022/07/07 00:54:10;;;;;;;4.9;4;;;;;;;16.97;81.77344;943.3549;;;;
2022/07/07 00:56:40;;;;;;;4.9;3.8;;;;;;;17.03;81.42383;943.2888;;;;
2022/07/07 00:59:13;;;;;;;4;3.4;;;;;;;17.06;80.37598;943.2941;;;;
2022/07/07 01:01:39;;;;;;;4.8;3.7;;;;;;;17.12;80.17773;943.2751;;;;
2022/07/07 01:04:09;;;;;;;4.1;3.5;;;;;;;17.1;79.81445;943.2505;;;;
2022/07/07 01:06:35;;;;;;;4.2;3.4;;;;;;;17.14;79.49805;943.238;;;;
2022/07/07 01:09:00;;;;;;;5.5;3.5;;;;;;;17.14;79.49805;943.2243;;;;
2022/07/07 01:11:25;;;;;;;5.2;3.7;;;;;;;17.2;79.25488;943.2004;;;;
2022/07/07 01:13:50;;;;;;;4;3.2;;;;;;;17.2;79.21973;943.1489;;;;
2022/07/07 01:16:16;;;;;;;4.5;3.8;;;;;;;17.21;79.13867;943.1312;;;;
2022/07/07 01:18:44;;;;;;;5.7;3.9;;;;;;;17.21;79.11621;943.0524;;;;
2022/07/07 01:21:07;;;;;;;5.6;3.9;;;;;;;17.22;79.19824;943.0466;;;;
2022/07/07 01:23:32;;;;;;;4.6;3.3;;;;;;;17.24;78.79785;943.0435;;;;
2022/07/07 01:26:00;;;;;;;4.1;3.7;;;;;;;17.26;78.53418;943.0281;;;;
2022/07/07 01:28:25;;;;;;;3.6;3.3;;;;;;;17.17;79.00488;943.0341;;;;
2022/07/07 01:30:51;;;;;;;4.2;3;;;;;;;17.28;78.49121;943.0101;;;;
2022/07/07 01:33:16;;;;;;;4;3.5;;;;;;;17.29;77.99414;943.014;;;;
2022/07/07 01:35:42;;;;;;;4;3.6;;;;;;;17.25;78.06738;942.9445;;;;
2022/07/07 01:38:07;;;;;;;3.8;3.4;;;;;;;17.29;78.12109;942.9907;;;;
2022/07/07 01:40:33;;;;;;;4.7;3.6;;;;;;;17.29;78.78223;942.9931;;;;
2022/07/07 01:42:59;;;;;;;4.7;3.4;;;;;;;17.05;79.95703;942.9699;;;;
2022/07/07 01:45:25;;;;;;;4.4;3.4;;;;;;;16.92;79.85352;943.002;;;;
2022/07/07 01:47:50;;;;;;;6.2;3.5;;;;;;;16.94;79.59961;943.0325;;;;
2022/07/07 01:50:23;;;;;;;4.8;3.3;;;;;;;17;78.24414;942.9426;;;;
2022/07/07 01:52:49;;;;;;;3.9;3.6;;;;;;;17.04;79.25879;942.9523;;;;
2022/07/07 01:55:14;;;;;;;4;3.7;;;;;;;17.11;79.2373;942.9203;;;;
2022/07/07 01:57:43;;;;;;;4;3.6;;;;;;;17.17;78.69336;942.9464;;;;
2022/07/07 02:00:08;;;;;;;4.4;3.7;;;;;;;17.25;78.47266;942.8897;;;;
2022/07/07 02:02:36;;;;;;;5.6;3.8;;;;;;;17.21;77.94434;942.8777;;;;
2022/07/07 02:05:01;;;;;;;3.7;3.4;;;;;;;17.22;78.75781;942.925;;;;
2022/07/07 02:07:33;;;;;;;5;3.6;;;;;;;17.19;79.19531;942.8867;;;;
2022/07/07 02:09:59;;;;;;;4.3;3.8;;;;;;;17.22;78.9668;942.8736;;;;
2022/07/07 02:12:24;;;;;;;5;3.7;;;;;;;17.22;78.12012;942.8285;;;;
2022/07/07 02:14:50;;;;;;;5;4;;;;;;;17.25;77.75586;942.8535;;;;
2022/07/07 02:17:17;;;;;;;4.2;3.8;;;;;;;17.15;79.11719;942.8758;;;;
2022/07/07 02:19:41;;;;;;;4.4;4;;;;;;;17;80.14453;942.863;;;;
2022/07/07 02:22:09;;;;;;;5.8;4.1;;;;;;;17.01;81.22363;942.8878;;;;
2022/07/07 02:24:34;;;;;;;5.4;3.8;;;;;;;16.99;81.01367;942.9081;;;;
2022/07/07 02:27:02;;;;;;;3.8;3.5;;;;;;;16.96;80.82129;942.9486;;;;
2022/07/07 02:29:27;;;;;;;4.1;3.8;;;;;;;16.76;81.86035;942.8694;;;;
2022/07/07 02:31:53;;;;;;;4.3;3.9;;;;;;;16.9;81.5625;942.9684;;;;
2022/07/07 02:34:20;;;;;;;4.4;4;;;;;;;16.91;80.7666;942.9337;;;;
2022/07/07 02:36:47;;;;;;;4.2;3.8;;;;;;;16.94;79.21875;942.9744;;;;
2022/07/07 02:39:12;;;;;;;4.4;4;;;;;;;16.91;80.08203;942.9353;;;;
2022/07/07 02:41:41;;;;;;;3.9;3.6;;;;;;;17;79.05469;943.0295;;;;
2022/07/07 02:44:06;;;;;;;4.5;4.1;;;;;;;17.03;79.41895;942.9588;;;;
2022/07/07 02:46:34;;;;;;;4.2;3.8;;;;;;;17.08;79.24316;943.0269;;;;
2022/07/07 02:48:59;;;;;;;4.7;4.3;;;;;;;17.07;80.13477;942.9295;;;;
2022/07/07 02:51:25;;;;;;;4.2;3.8;;;;;;;17.08;79.2666;942.9406;;;;
2022/07/07 02:53:50;;;;;;;5.1;3.9;;;;;;;17.14;78.69727;942.9756;;;;
2022/07/07 02:56:15;;;;;;;5.7;4.4;;;;;;;17.24;77.98633;942.9662;;;;
2022/07/07 02:58:41;;;;;;;4.6;3.9;;;;;;;17.16;78.75977;942.9641;;;;
2022/07/07 03:01:07;;;;;;;4.3;3.8;;;;;;;17.27;78.53613;942.949;;;;
2022/07/07 03:03:32;;;;;;;5.2;4.1;;;;;;;17.28;77.99219;942.9425;;;;
2022/07/07 03:05:57;;;;;;;4.5;4.1;;;;;;;17.24;79.04102;942.8535;;;;
2022/07/07 03:08:24;;;;;;;4.8;4.3;;;;;;;17.09;79.91895;942.865;;;;
2022/07/07 03:10:49;;;;;;;5.3;4;;;;;;;17.06;80.64063;942.908;;;;
2022/07/07 03:13:16;;;;;;;4.9;4.5;;;;;;;17.04;80.37109;942.9009;;;;
2022/07/07 03:15:45;;;;;;;4.3;3.9;;;;;;;16.46;84.02734;942.8915;;;;
2022/07/07 03:18:12;;;;;;;4.9;4.4;;;;;;;16.45;83.22656;942.8699;;;;
2022/07/07 03:20:37;;;;;;;4.8;4.4;;;;;;;16.58;83.1582;942.8812;;;;
2022/07/07 03:23:06;;;;;;;4.6;4.2;;;;;;;16.72;82.58301;942.8245;;;;
2022/07/07 03:25:31;;;;;;;4.9;4.3;;;;;;;16.85;82.84082;942.8553;;;;
2022/07/07 03:27:55;;;;;;;7.6;4.6;;;;;;;16.82;82.67285;942.8033;;;;
2022/07/07 03:30:24;;;;;;;5.9;4.3;;;;;;;16.71;83.13867;942.7795;;;;
2022/07/07 03:32:53;;;;;;;5.1;4.2;;;;;;;16.81;82.32422;942.8247;;;;
2022/07/07 03:35:18;;;;;;;6.1;4.3;;;;;;;16.81;82.78711;942.8167;;;;
2022/07/07 03:37:48;;;;;;;4.2;3.8;;;;;;;16.8;82.55176;942.7935;;;;
2022/07/07 03:40:17;;;;;;;4.4;4;;;;;;;16.85;82.09863;942.7636;;;;
2022/07/07 03:42:42;;;;;;;4.8;4.3;;;;;;;16.88;81.19922;942.8013;;;;
2022/07/07 03:45:10;;;;;;;4.9;4.5;;;;;;;16.94;81.02637;942.8128;;;;
2022/07/07 03:47:35;;;;;;;7.4;4.8;;;;;;;17;80.97852;942.7842;;;;
2022/07/07 03:50:02;;;;;;;6.2;4.1;;;;;;;17.02;80.4043;942.728;;;;
2022/07/07 03:52:27;;;;;;;5.9;4.1;;;;;;;17.1;80.07031;942.7531;;;;
2022/07/07 03:54:56;;;;;;;4.5;4.1;;;;;;;17.07;80.6084;942.7629;;;;
2022/07/07 03:57:26;;;;;;;4.2;3.9;;;;;;;17.16;80.04492;942.7341;;;;
2022/07/07 03:59:51;;;;;;;4.8;4.4;;;;;;;17.19;80.0752;942.7587;;;;
2022/07/07 04:02:32;;;;;;;5.5;4.5;;;;;;;17.22;79.50195;942.7249;;;;
2022/07/07 04:05:01;;;;;;;4.4;3.9;;;;;;;17.15;79.38379;942.7028;;;;
2022/07/07 04:07:26;;;;;;;5.8;4.3;;;;;;;17.05;80.38477;942.7294;;;;
2022/07/07 04:09:57;;;;;;;5.8;4.1;;;;;;;16.88;79.98438;942.6661;;;;
2022/07/07 04:12:21;;;;;;;4.8;3.9;;;;;;;16.74;80.06152;942.74;;;;
2022/07/07 04:14:48;;;;;;;10.5;4.3;;;;;;;16.72;81.2627;942.6886;;;;
2022/07/07 04:17:13;;;;;;;5.2;4;;;;;;;16.61;81.97266;942.7347;;;;
2022/07/07 04:19:39;;;;;;;5.1;4.1;;;;;;;16.6;81.16992;942.7316;;;;
2022/07/07 04:22:04;;;;;;;4.1;3.5;;;;;;;16.59;80.16309;942.6841;;;;
2022/07/07 04:24:30;;;;;;;4;3.4;;;;;;;16.59;80.86914;942.5698;;;;
2022/07/07 04:26:55;;;;;;;4.6;4.1;;;;;;;16.62;81.2334;942.5708;;;;
2022/07/07 04:29:23;;;;;;;5.5;4.1;;;;;;;16.61;81.26563;942.5689;;;;
2022/07/07 04:31:48;;;;;;;6;4.2;;;;;;;16.64;81.40039;942.557;;;;
2022/07/07 04:34:14;;;;;;;4.8;3.6;;;;;;;16.74;80.44434;942.5518;;;;
2022/07/07 04:36:39;;;;;;;4.4;4;;;;;;;16.75;81.22168;942.4528;;;;
2022/07/07 04:39:09;;;;;;;6.1;4.4;;;;;;;16.8;81.74121;942.438;;;;
2022/07/07 04:41:34;;;;;;;4.4;4;;;;;;;16.83;80.94922;942.4307;;;;
2022/07/07 04:44:01;;;;;;;4.4;4;;;;;;;16.79;82.72559;942.5112;;;;
2022/07/07 04:46:26;;;;;;;5.5;4.3;;;;;;;16.8;82.77246;942.3833;;;;
2022/07/07 04:48:52;;;;;;;6.1;4.1;;;;;;;16.86;82.49316;942.4314;;;;
2022/07/07 04:51:17;;;;;;;4.3;4;;;;;;;16.86;82.35547;942.416;;;;
2022/07/07 04:53:45;;;;;;;6.3;4.6;;;;;;;16.76;83.11133;942.4777;;;;
2022/07/07 04:56:10;;;;;;;5;4.5;;;;;;;16.84;82.65332;942.4853;;;;
2022/07/07 04:58:37;;;;;;;5.2;4.7;;;;;;;16.81;83.48047;942.4322;;;;
2022/07/07 05:01:02;;;;;;;5.6;4;;;;;;;17;82.65918;942.4777;;;;
2022/07/07 05:03:30;;;;;;;4.4;4;;;;;;;17.12;81.54492;942.4914;;;;
2022/07/07 05:05:55;;;;;;;4.6;4;;;;;;;17.19;80.57324;942.5599;;;;
2022/07/07 05:08:25;;;;;;;4.3;3.9;;;;;;;17.23;80.40723;942.4906;;;;
2022/07/07 05:10:56;;;;;;;4.7;4.3;;;;;;;17.29;80.51074;942.5262;;;;
2022/07/07 05:13:21;;;;;;;4.8;4;;;;;;;17.36;81.24219;942.4886;;;;
2022/07/07 05:15:48;;;;;;;5.3;4.1;;;;;;;17.39;81.08496;942.4931;;;;
2022/07/07 05:18:12;;;;;;;8.8;5.2;;;;;;;17.41;81.17188;942.5203;;;;
2022/07/07 05:20:41;;;;;;;11.7;5.6;;;;;;;17.45;81.03906;942.4614;;;;
2022/07/07 05:23:11;;;;;;;7.2;4.9;;;;;;;17.33;81.19141;942.5323;;;;
2022/07/07 05:25:36;;;;;;;8.3;5.8;;;;;;;17.23;81.83203;942.5277;;;;
2022/07/07 05:28:04;;;;;;;7.4;5.5;;;;;;;17.25;82.32227;942.439;;;;
2022/07/07 05:30:33;;;;;;;7.9;5.4;;;;;;;17.04;84.75195;942.5388;;;;
2022/07/07 05:32:58;;;;;;;8.5;5;;;;;;;17.2;84.59961;942.5622;;;;
2022/07/07 05:35:25;;;;;;;8.4;5.6;;;;;;;17.18;84.49023;942.6469;;;;
2022/07/07 05:37:51;;;;;;;7.5;5;;;;;;;17.21;84.13574;942.5758;;;;
2022/07/07 05:40:21;;;;;;;15.7;6.9;;;;;;;17.09;84.4707;942.5874;;;;
2022/07/07 05:42:48;;;;;;;11;6;;;;;;;17.31;83.80664;942.5986;;;;
2022/07/07 05:45:14;;;;;;;10.9;6.2;;;;;;;17.46;82.89648;942.6135;;;;
2022/07/07 05:47:43;;;;;;;7.6;4.7;;;;;;;17.59;82.57227;942.5936;;;;
2022/07/07 05:50:08;;;;;;;7.5;4.9;;;;;;;17.57;83.20898;942.5736;;;;
2022/07/07 05:52:36;;;;;;;4.7;4.3;;;;;;;17.66;79.70898;942.5352;;;;
2022/07/07 05:55:01;;;;;;;4.9;3.7;;;;;;;17.75;81.11719;942.5764;;;;
2022/07/07 05:57:30;;;;;;;4.8;4.1;;;;;;;17.93;79.10645;942.5278;;;;
2022/07/07 05:59:55;;;;;;;5.2;4;;;;;;;18.35;76.61426;942.5117;;;;
2022/07/07 06:02:25;;;;;;;5.1;3.8;;;;;;;18.57;74.61621;942.4589;;;;
2022/07/07 06:04:55;;;;;;;5.7;3.5;;;;;;;18.43;74.73145;942.4875;;;;
2022/07/07 06:07:21;;;;;;;4.1;3.7;;;;;;;18.39;75.36426;942.5402;;;;
2022/07/07 06:09:52;;;;;;;4.4;3.9;;;;;;;18.5;74.70898;942.4842;;;;
2022/07/07 06:12:17;;;;;;;4.7;3.8;;;;;;;18.29;74.51074;942.652;;;;
2022/07/07 06:14:43;;;;;;;4.6;4;;;;;;;18.5;71.52246;942.6575;;;;
2022/07/07 06:17:09;;;;;;;3.9;3.4;;;;;;;18.48;70.53125;942.6239;;;;
2022/07/07 06:19:36;;;;;;;4.2;3.4;;;;;;;18.49;69.23047;942.5407;;;;
2022/07/07 06:22:01;;;;;;;3.5;3.2;;;;;;;18.54;68.61133;942.5875;;;;
2022/07/07 06:24:27;;;;;;;4.5;3.5;;;;;;;18.51;68.66406;942.5106;;;;
2022/07/07 06:26:52;;;;;;;7.3;3.2;;;;;;;18.7;65.69336;942.6245;;;;
2022/07/07 06:29:19;;;;;;;5;3.5;;;;;;;18.8;66.60254;942.6586;;;;
2022/07/07 06:31:44;;;;;;;4.8;3.1;;;;;;;18.66;65.55859;942.6615;;;;
2022/07/07 06:34:14;;;;;;;6.7;3.5;;;;;;;18.5;65.43066;942.6486;;;;
2022/07/07 06:36:39;;;;;;;5.6;3.8;;;;;;;18.6;65.58398;942.6586;;;;
2022/07/07 06:39:06;;;;;;;6.2;3.5;;;;;;;18.86;64.84375;942.65;;;;
2022/07/07 06:41:31;;;;;;;5.1;3.8;;;;;;;18.94;64.62207;942.6412;;;;
2022/07/07 06:43:58;;;;;;;6.1;3.9;;;;;;;18.9;66.14063;942.6533;;;;
2022/07/07 06:46:23;;;;;;;6.7;3.9;;;;;;;18.82;63.17285;942.6728;;;;
2022/07/07 06:48:50;;;;;;;5.7;3.3;;;;;;;18.88;62.75098;942.69;;;;
2022/07/07 06:51:15;;;;;;;6.2;3.8;;;;;;;18.84;62.28027;942.6848;;;;
2022/07/07 06:53:42;;;;;;;5.4;3.3;;;;;;;18.86;62.41113;942.6523;;;;
2022/07/07 06:56:07;;;;;;;6.3;3.6;;;;;;;19.07;63.32715;942.5919;;;;
2022/07/07 06:58:35;;;;;;;5.1;3.1;;;;;;;19.12;62.21582;942.6573;;;;
2022/07/07 07:01:00;;;;;;;4.1;3.4;;;;;;;19.01;63.34082;942.6589;;;;
2022/07/07 07:03:29;;;;;;;3.3;3;;;;;;;18.96;63.17188;942.7184;;;;
2022/07/07 07:05:53;;;;;;;4.7;3;;;;;;;19.06;61.55469;942.7294;;;;
2022/07/07 07:08:20;;;;;;;4.2;2.9;;;;;;;18.97;60.95996;942.7175;;;;
2022/07/07 07:10:45;;;;;;;4;2.9;;;;;;;19.15;61.12598;942.7165;;;;
2022/07/07 07:13:13;;;;;;;5.9;2.9;;;;;;;19.05;63.16016;942.7505;;;;
2022/07/07 07:15:39;;;;;;;3.9;3.2;;;;;;;19.19;62.30664;942.6247;;;;
2022/07/07 07:18:08;;;;;;;6.6;3.7;;;;;;;18.94;62.81836;942.5922;;;;
2022/07/07 07:20:33;;;;;;;4.1;3.5;;;;;;;19.18;62.22266;942.5659;;;;
2022/07/07 07:23:03;;;;;;;3.9;3.1;;;;;;;18.99;62.00977;942.5114;;;;
2022/07/07 07:25:32;;;;;;;6.1;3.3;;;;;;;19.01;61.26855;942.5652;;;;
2022/07/07 07:27:57;;;;;;;6;3.4;;;;;;;19.17;60.61426;942.5653;;;;
2022/07/07 07:30:27;;;;;;;5.5;3.4;;;;;;;19.3;60.90039;942.6046;;;;
2022/07/07 07:32:57;;;;;;;5.1;3.2;;;;;;;19.44;61.63184;942.5709;;;;
2022/07/07 07:35:27;;;;;;;3.8;3.3;;;;;;;19.42;59.2627;942.592;;;;
2022/07/07 07:37:56;;;;;;;4.3;3.2;;;;;;;19.49;59.95996;942.62;;;;
2022/07/07 07:40:21;;;;;;;4.6;3.1;;;;;;;19.19;61.50391;942.6481;;;;
2022/07/07 07:42:46;;;;;;;4.9;3.1;;;;;;;19.42;61.30176;942.6052;;;;
2022/07/07 07:45:17;;;;;;;3.7;3.3;;;;;;;19.39;63.77832;942.6911;;;;
2022/07/07 07:47:46;;;;;;;3.7;3.1;;;;;;;19.41;63.29199;942.6164;;;;
2022/07/07 07:50:12;;;;;;;3.8;3.2;;;;;;;19.72;61.72852;942.6479;;;;
2022/07/07 07:53:01;;;;;;;3.8;3.1;;;;;;;19.8;63.22168;942.6505;;;;
2022/07/07 07:55:26;;;;;;;3.5;3;;;;;;;20.06;59.4541;942.5974;;;;
2022/07/07 07:57:51;;;;;;;4.1;3;;;;;;;20.1;58.94629;942.5999;;;;
2022/07/07 08:00:20;;;;;;;3.9;2.7;;;;;;;20.05;61.31934;942.6478;;;;
2022/07/07 08:02:45;;;;;;;4.1;2.8;;;;;;;20.19;58.38574;942.5908;;;;
2022/07/07 08:05:11;;;;;;;2.9;2.7;;;;;;;20.26;59.9707;942.5168;;;;
2022/07/07 08:07:39;;;;;;;4.8;3;;;;;;;20.33;57.73926;942.5;;;;
2022/07/07 08:10:01;;;;;;;4.8;3.1;;;;;;;20.62;57.04004;942.4684;;;;
2022/07/07 08:12:26;;;;;;;5.9;3.7;;;;;;;20.78;57.35254;942.5856;;;;
2022/07/07 08:14:54;;;;;;;4.2;3.4;;;;;;;20.79;56.16309;942.5336;;;;
2022/07/07 08:17:21;;;;;;;4.9;3.1;;;;;;;20.9;54.9375;942.5653;;;;
2022/07/07 08:19:46;;;;;;;4.5;3.2;;;;;;;20.91;54.35254;942.5383;;;;
2022/07/07 08:22:12;;;;;;;6;3.3;;;;;;;21.1;53.30078;942.5842;;;;
2022/07/07 08:24:40;;;;;;;4.3;2.9;;;;;;;21.17;52.4209;942.4844;;;;
2022/07/07 08:27:04;;;;;;;5.6;2.8;;;;;;;21.28;53.42773;942.5164;;;;
2022/07/07 08:29:30;;;;;;;3.4;2.8;;;;;;;21.01;57.1709;942.4461;;;;
2022/07/07 08:31:59;;;;;;;3.4;3;;;;;;;20.88;55.74023;942.378;;;;
2022/07/07 08:34:26;;;;;;;5.1;3;;;;;;;20.95;53.09668;942.3162;;;;
2022/07/07 08:36:52;;;;;;;4.1;3.2;;;;;;;20.81;52.83496;942.3136;;;;
2022/07/07 08:39:20;;;;;;;5;3.4;;;;;;;20.55;56.2373;942.2773;;;;
2022/07/07 08:41:45;;;;;;;4.2;2.9;;;;;;;20.64;55.03418;942.2471;;;;
2022/07/07 08:44:12;;;;;;;3.8;3.3;;;;;;;20.72;54.86816;942.3297;;;;
2022/07/07 08:46:36;;;;;;;5.3;3.1;;;;;;;20.82;56.75098;942.4009;;;;
2022/07/07 08:49:05;;;;;;;4.8;2.9;;;;;;;20.91;57.25391;942.45;;;;
2022/07/07 08:51:30;;;;;;;3.7;3;;;;;;;20.79;57.19141;942.3764;;;;
2022/07/07 08:53:59;;;;;;;4.4;3.1;;;;;;;20.89;56.66602;942.3428;;;;
2022/07/07 08:56:23;;;;;;;4.8;3.4;;;;;;;20.8;56.75977;942.301;;;;
2022/07/07 08:58:48;;;;;;;4.6;3.2;;;;;;;21;57.2998;942.2811;;;;
2022/07/07 09:01:14;;;;;;;5.4;3.5;;;;;;;21.14;55.78516;942.3971;;;;
2022/07/07 09:03:42;;;;;;;6.2;3.1;;;;;;;20.9;55.56836;942.3669;;;;
2022/07/07 09:06:07;;;;;;;4.7;3.3;;;;;;;20.97;56.52441;942.3667;;;;
2022/07/07 09:08:40;;;;;;;6.2;3.6;;;;;;;20.83;56.26074;942.4041;;;;
2022/07/07 09:11:05;;;;;;;5.2;3.7;;;;;;;20.94;56.07617;942.4218;;;;
2022/07/07 09:13:32;;;;;;;4.5;3.7;;;;;;;20.82;56.84375;942.4325;;;;
2022/07/07 09:16:06;;;;;;;4.7;3.4;;;;;;;20.95;56.65137;942.4313;;;;
2022/07/07 09:18:24;;;;;;;4.5;3.2;;;;;;;20.6;57.9375;942.4509;;;;
2022/07/07 09:23:30;;;;;;;3.6;3;;;;;;;21.17;55.42676;942.4684;;;;
2022/07/07 09:25:55;;;;;;;4.8;3.3;;;;;;;21.35;53.96191;942.403;;;;
2022/07/07 09:28:37;;;;;;;5.7;3.5;;;;;;;21.06;56.62891;942.4792;;;;
2022/07/07 09:30:53;;;;;;;4;3.4;;;;;;;21.15;57.65918;942.5084;;;;
2022/07/07 09:33:18;;;;;;;6.6;3.9;;;;;;;21.52;58.05859;942.4537;;;;
2022/07/07 09:38:22;;;;;;;5.6;3.4;;;;;;;22.98;53.22266;942.3987;;;;
2022/07/07 09:40:44;;;;;;;3.9;2.9;;;;;;;22.56;53.98047;942.325;;;;
2022/07/07 09:43:01;;;;;;;5.1;3.3;;;;;;;23.08;52.51758;942.3528;;;;
2022/07/07 09:45:27;;;;;;;3;2.7;;;;;;;23.68;52.25879;942.3647;;;;
2022/07/07 09:47:58;;;;;;;4.5;2.7;;;;;;;23.85;51.5957;942.3851;;;;
2022/07/07 09:50:23;;;;;;;5.6;2.9;;;;;;;24.04;49.65039;942.3372;;;;
2022/07/07 09:52:49;;;;;;;3;2.7;;;;;;;24.63;47.91309;942.3757;;;;
2022/07/07 09:55:17;;;;;;;3.6;3.2;;;;;;;24.2;47.51367;942.3917;;;;
2022/07/07 09:57:42;;;;;;;5;3.6;;;;;;;23.39;52.20117;942.3876;;;;
2022/07/07 10:00:13;;;;;;;4.6;3.4;;;;;;;22.78;53.11621;942.4717;;;;
2022/07/07 10:02:39;;;;;;;5.2;3.3;;;;;;;22.97;53.2793;942.4794;;;;
2022/07/07 10:05:03;;;;;;;4.4;3.1;;;;;;;22.93;53.9209;942.45;;;;
2022/07/07 10:07:28;;;;;;;3.3;3;;;;;;;22.83;53.79102;942.38;;;;
2022/07/07 10:09:57;;;;;;;4.9;3.2;;;;;;;22.46;54.93066;942.4514;;;;
2022/07/07 10:12:23;;;;;;;3.8;3.3;;;;;;;21.97;56.72266;942.4641;;;;
2022/07/07 10:15:11;;;;;;;4.4;3.5;;;;;;;21.68;54.93945;942.5472;;;;
2022/07/07 10:17:40;;;;;;;3.3;3;;;;;;;21.06;58.86328;942.5309;;;;
2022/07/07 10:20:05;;;;;;;6.9;5.1;;;;;;;21.01;59.41797;942.5367;;;;
2022/07/07 10:22:33;;;;;;;4.4;3.9;;;;;;;21.02;63.65234;942.5139;;;;
2022/07/07 10:24:58;;;;;;;3.7;3.2;;;;;;;21.21;61.7959;942.5249;;;;
2022/07/07 10:27:28;;;;;;;4;3.3;;;;;;;21.26;60.5752;942.5065;;;;
2022/07/07 10:29:53;;;;;;;3.5;3.2;;;;;;;20.79;62.00684;942.5466;;;;
2022/07/07 10:32:19;;;;;;;3.1;2.7;;;;;;;20.91;59.9541;942.6208;;;;
2022/07/07 10:34:47;;;;;;;4.7;3.4;;;;;;;20.72;60.62988;942.6799;;;;
2022/07/07 10:37:12;;;;;;;3.7;3.1;;;;;;;20.44;62.45996;942.6308;;;;
2022/07/07 10:39:38;;;;;;;4.1;3.3;;;;;;;20.42;63.06348;942.6844;;;;
2022/07/07 10:42:04;;;;;;;4.3;3.4;;;;;;;20.11;65.76367;942.6652;;;;
2022/07/07 10:44:35;;;;;;;4.4;3.3;;;;;;;20.21;63.25684;942.6729;;;;
2022/07/07 10:47:05;;;;;;;4.6;3.4;;;;;;;19.93;65.52637;942.6111;;;;
2022/07/07 10:49:30;;;;;;;3.9;3.4;;;;;;;19.59;66.34961;942.6161;;;;
2022/07/07 10:51:57;;;;;;;4.2;3.7;;;;;;;19.52;67.56445;942.6097;;;;
2022/07/07 10:54:26;;;;;;;3.9;3.4;;;;;;;19.35;70.07617;942.5472;;;;
2022/07/07 10:56:59;;;;;;;3.6;3.2;;;;;;;19.72;69.53027;942.5298;;;;
2022/07/07 10:59:23;;;;;;;4.5;3.8;;;;;;;19.38;67.08789;942.4367;;;;
2022/07/07 11:01:52;;;;;;;3.9;3.4;;;;;;;19.3;68.0752;942.5206;;;;
2022/07/07 11:04:19;;;;;;;3.8;3.5;;;;;;;19.48;70.00293;942.5193;;;;
2022/07/07 11:06:49;;;;;;;4.6;3.2;;;;;;;19.52;68.94922;942.6124;;;;
2022/07/07 11:09:14;;;;;;;3.6;3.2;;;;;;;19.72;68.08301;942.6398;;;;
2022/07/07 11:11:45;;;;;;;3.6;2.7;;;;;;;19.95;65.19043;942.6769;;;;
2022/07/07 11:14:13;;;;;;;3.3;3;;;;;;;20.16;65.85156;942.618;;;;
2022/07/07 11:16:39;;;;;;;3.8;3.4;;;;;;;20.34;67.01172;942.6453;;;;
2022/07/07 11:19:07;;;;;;;3.9;2.8;;;;;;;20.63;64.42578;942.6755;;;;
2022/07/07 11:21:32;;;;;;;4.2;3.2;;;;;;;20.87;64.03906;942.6559;;;;
2022/07/07 11:23:58;;;;;;;3.5;3.2;;;;;;;20.86;64.98535;942.6124;;;;
2022/07/07 11:26:23;;;;;;;3.8;2.9;;;;;;;20.6;65.50879;942.5739;;;;
2022/07/07 11:28:48;;;;;;;3.2;2.9;;;;;;;21.05;64.07813;942.5798;;;;
2022/07/07 11:31:13;;;;;;;3.2;3;;;;;;;21.33;61.66113;942.4721;;;;
2022/07/07 11:33:42;;;;;;;3.4;2.8;;;;;;;21.54;59.98047;942.3683;;;;
2022/07/07 11:36:07;;;;;;;4.1;3;;;;;;;21.66;61.33203;942.363;;;;
2022/07/07 11:38:37;;;;;;;3.6;2.7;;;;;;;22.04;61.44434;942.4019;;;;
2022/07/07 11:41:03;;;;;;;3.5;3;;;;;;;22.05;61.22168;942.4131;;;;
2022/07/07 11:43:35;;;;;;;3.5;2.6;;;;;;;22.2;59.09668;942.37;;;;
2022/07/07 11:46:01;;;;;;;5.5;2.6;;;;;;;22.33;59.98145;942.3923;;;;
2022/07/07 11:48:26;;;;;;;3.4;2.5;;;;;;;22.29;57.93652;942.3547;;;;
2022/07/07 11:50:55;;;;;;;4.2;2.7;;;;;;;21.91;56.67969;942.4083;;;;
2022/07/07 11:53:20;;;;;;;4.1;3.2;;;;;;;21.6;58.24512;942.459;;;;
2022/07/07 11:55:46;;;;;;;2.9;2.7;;;;;;;21.36;61.43066;942.4803;;;;
2022/07/07 11:58:12;;;;;;;3.3;2.6;;;;;;;21.19;62.82324;942.5092;;;;
2022/07/07 12:00:36;;;;;;;3.2;2.9;;;;;;;20.67;63.74219;942.5072;;;;
2022/07/07 12:03:08;;;;;;;3.4;2.9;;;;;;;20.37;64.58691;942.5848;;;;
2022/07/07 12:05:33;;;;;;;3.5;3.2;;;;;;;19.91;64.79883;942.5961;;;;
2022/07/07 12:07:58;;;;;;;3.7;3.1;;;;;;;19.63;68.76855;942.5988;;;;
2022/07/07 12:10:27;;;;;;;4.4;3;;;;;;;19.78;68.02246;942.5539;;;;
2022/07/07 12:12:56;;;;;;;4;3.1;;;;;;;19.62;71.29688;942.4775;;;;
2022/07/07 12:15:30;;;;;;;3.4;3.1;;;;;;;19.5;70.81152;942.5892;;;;
2022/07/07 12:17:58;;;;;;;3.3;3;;;;;;;19.77;69.26855;942.622;;;;
2022/07/07 12:20:23;;;;;;;3.5;2.9;;;;;;;19.93;69.78418;942.6119;;;;
2022/07/07 12:22:50;;;;;;;4.8;3;;;;;;;20.33;69.29883;942.6456;;;;
2022/07/07 12:25:16;;;;;;;3.3;2.4;;;;;;;20.51;65.10938;942.5938;;;;
2022/07/07 12:27:43;;;;;;;3.7;2.4;;;;;;;20.4;65.34961;942.5535;;;;
2022/07/07 12:30:08;;;;;;;2.8;2.6;;;;;;;20.29;68.48535;942.4669;;;;
2022/07/07 12:32:37;;;;;;;3.7;2.7;;;;;;;21.15;66.35059;942.5555;;;;
2022/07/07 12:35:02;;;;;;;2.6;2.4;;;;;;;22.06;61.50488;942.5823;;;;
2022/07/07 12:37:29;;;;;;;3;2.5;;;;;;;21.41;61.7998;942.5342;;;;
2022/07/07 12:39:54;;;;;;;4.1;2.2;;;;;;;21.02;60.62305;942.5309;;;;
2022/07/07 12:42:23;;;;;;;3.2;2.3;;;;;;;20.93;63.59375;942.5595;;;;
2022/07/07 12:44:48;;;;;;;4;2.3;;;;;;;21.09;63.06641;942.5901;;;;
2022/07/07 12:47:13;;;;;;;3;2.2;;;;;;;20.84;60.75098;942.6558;;;;
2022/07/07 12:49:38;;;;;;;2.8;2.1;;;;;;;21;61.1709;942.5215;;;;
2022/07/07 12:52:07;;;;;;;3.8;2.5;;;;;;;21.07;60.33984;942.5817;;;;
2022/07/07 12:54:32;;;;;;;4.3;2.2;;;;;;;20.66;60.00293;942.5955;;;;
2022/07/07 12:56:57;;;;;;;3.6;2.4;;;;;;;20.42;61.84863;942.6238;;;;
2022/07/07 12:59:23;;;;;;;2.4;2.2;;;;;;;20.37;63.15039;942.5792;;;;
2022/07/07 13:01:53;;;;;;;2.5;2.1;;;;;;;20.31;64.15723;942.5781;;;;
2022/07/07 13:04:23;;;;;;;2.3;2.1;;;;;;;20.32;63.63281;942.4994;;;;
2022/07/07 13:06:49;;;;;;;3.1;2.1;;;;;;;20.05;61.7168;942.525;;;;
2022/07/07 13:09:15;;;;;;;3.5;2.4;;;;;;;19.96;63.8623;942.5676;;;;
2022/07/07 13:11:41;;;;;;;3.9;2.7;;;;;;;20.12;66.80371;942.5372;;;;
2022/07/07 13:14:09;;;;;;;3.2;2.2;;;;;;;20.22;65.47461;942.6339;;;;
2022/07/07 13:16:34;;;;;;;2.9;2.2;;;;;;;20.31;66.23633;942.5958;;;;
2022/07/07 13:18:59;;;;;;;4.1;2.3;;;;;;;20.61;63.54883;942.6326;;;;
2022/07/07 13:21:24;;;;;;;3.2;2.6;;;;;;;20.5;62.67871;942.5437;;;;
2022/07/07 13:24:02;;;;;;;2.3;2.1;;;;;;;20.41;61.04199;942.5803;;;;
2022/07/07 13:26:24;;;;;;;3.2;2.3;;;;;;;20.55;59.98633;942.5798;;;;
2022/07/07 13:28:52;;;;;;;3.9;2.3;;;;;;;20.38;60.4541;942.5872;;;;
2022/07/07 13:31:17;;;;;;;5.1;2.3;;;;;;;20.57;61.03027;942.5559;;;;
2022/07/07 13:33:43;;;;;;;2.9;2;;;;;;;20.51;58.65039;942.4764;;;;
2022/07/07 13:36:08;;;;;;;5.1;2.5;;;;;;;20.76;59.92188;942.4525;;;;
2022/07/07 13:38:33;;;;;;;2.1;1.9;;;;;;;20.75;61.74316;942.43;;;;
2022/07/07 13:41:01;;;;;;;2.4;1.9;;;;;;;20.71;60.26563;942.5725;;;;
2022/07/07 13:43:26;;;;;;;4.3;2.1;;;;;;;20.88;60.74414;942.5359;;;;
2022/07/07 13:45:54;;;;;;;5.2;2.2;;;;;;;21.12;61.81836;942.5158;;;;
2022/07/07 13:48:21;;;;;;;2.5;1.9;;;;;;;21.11;59.45605;942.5499;;;;
2022/07/07 13:50:46;;;;;;;2.7;2.1;;;;;;;20.8;57.69531;942.5891;;;;
2022/07/07 13:53:14;;;;;;;2.5;2.1;;;;;;;20.7;59.13086;942.6408;;;;
2022/07/07 13:55:39;;;;;;;3.5;2.2;;;;;;;20.52;59.3877;942.5555;;;;
2022/07/07 13:58:06;;;;;;;4.1;2.1;;;;;;;20.59;60.28516;942.6049;;;;
2022/07/07 14:00:32;;;;;;;2.4;2.2;;;;;;;20.64;60.61816;942.5977;;;;
2022/07/07 14:03:03;;;;;;;2.8;2;;;;;;;20.7;60.2168;942.5195;;;;
2022/07/07 14:05:31;;;;;;;3.3;2.2;;;;;;;20.59;60.64551;942.5209;;;;
2022/07/07 14:07:56;;;;;;;4;2.4;;;;;;;20.52;61.13965;942.5402;;;;
2022/07/07 14:10:22;;;;;;;2.9;2.2;;;;;;;20.62;62.54395;942.5341;;;;
2022/07/07 14:12:47;;;;;;;2.9;2.4;;;;;;;20.82;62.6416;942.5676;;;;
2022/07/07 14:15:16;;;;;;;2.3;2.1;;;;;;;20.61;61.43359;942.5663;;;;
2022/07/07 14:17:42;;;;;;;3.8;2.5;;;;;;;20.69;61.84082;942.4783;;;;
2022/07/07 14:20:07;;;;;;;4.6;2.4;;;;;;;20.73;61.31934;942.4945;;;;
2022/07/07 14:22:40;;;;;;;3.3;2.3;;;;;;;20.77;62.85742;942.538;;;;
2022/07/07 14:25:01;;;;;;;3.8;2.4;;;;;;;21.02;61.27832;942.5179;;;;
2022/07/07 14:27:27;;;;;;;3.3;2.2;;;;;;;20.98;61.09766;942.5246;;;;
2022/07/07 14:29:51;;;;;;;4.2;2.5;;;;;;;21.16;62.43262;942.5722;;;;
2022/07/07 14:32:16;;;;;;;2.3;2.1;;;;;;;21.34;63.1123;942.5765;;;;
2022/07/07 14:34:41;;;;;;;3.7;2.2;;;;;;;21.44;60.75195;942.5961;;;;